Time;durP1;ratioP1;P1;durP2;ratioP2;P2;SDS_P1;SDS_P2;PMS_P1;PMS_P2;Temp;Humidity;BMP_temperature;BMP_pressure;BME280_temperature;BME280_humidity;BME280_pressure;Samples;Min_cycle;Max_cycle;Signal;HPM_P1;HPM_P2
2022/05/26 00:01:24;;;;;;;6.03;2.92;;;15.30;99.90;;;;;;5116336;28;20168;-69
2022/05/26 00:03:51;;;;;;;3.97;2.38;;;15.20;99.90;;;;;;5116291;28;20168;-69
2022/05/26 00:06:20;;;;;;;5.53;2.55;;;15.20;99.90;;;;;;5097761;28;20176;-69
2022/05/26 00:08:46;;;;;;;2.70;2.35;;;15.20;99.90;;;;;;5097290;28;20253;-70
2022/05/26 00:11:18;;;;;;;8.13;2.85;;;15.20;99.90;;;;;;5115837;28;20176;-69
2022/05/26 00:13:44;;;;;;;5.68;2.80;;;15.10;99.90;;;;;;5097354;28;20236;-70
2022/05/26 00:16:11;;;;;;;5.00;2.65;;;15.10;99.90;;;;;;5116200;28;20157;-68
2022/05/26 00:18:36;;;;;;;2.95;2.60;;;15.10;99.90;;;;;;5115809;28;20208;-68
2022/05/26 00:21:03;;;;;;;4.30;2.65;;;15.10;99.90;;;;;;5115716;28;20702;-68
2022/05/26 00:23:29;;;;;;;8.13;2.45;;;15.10;99.90;;;;;;5115534;28;20626;-70
2022/05/26 00:25:54;;;;;;;3.63;2.40;;;15.10;99.90;;;;;;5115526;28;20175;-69
2022/05/26 00:28:20;;;;;;;5.72;2.70;;;15.00;99.90;;;;;;5115699;28;20192;-69
2022/05/26 00:30:46;;;;;;;3.63;3.03;;;15.00;99.90;;;;;;5115670;28;20595;-69
2022/05/26 00:33:13;;;;;;;6.53;2.83;;;15.00;99.90;;;;;;5115336;28;20213;-71
2022/05/26 00:35:40;;;;;;;5.90;2.95;;;15.00;99.90;;;;;;5115749;28;20681;-69
2022/05/26 00:38:09;;;;;;;3.95;3.03;;;15.00;99.90;;;;;;5115107;28;20187;-68
2022/05/26 00:40:35;;;;;;;6.25;2.72;;;15.00;99.90;;;;;;5115149;28;20168;-69
2022/05/26 00:43:02;;;;;;;3.88;2.83;;;15.00;99.90;;;;;;5096918;28;20648;-69
2022/05/26 00:45:37;;;;;;;5.03;2.80;;;14.90;99.90;;;;;;5115179;28;20176;-70
2022/05/26 00:48:11;;;;;;;3.53;2.70;;;15.00;99.90;;;;;;5096828;28;20198;-69
2022/05/26 00:50:50;;;;;;;4.97;2.58;;;14.90;99.90;;;;;;5115283;28;20605;-69
2022/05/26 00:53:27;;;;;;;3.38;2.80;;;14.90;99.90;;;;;;5096485;28;20160;-69
2022/05/26 00:56:05;;;;;;;3.05;2.70;;;14.90;99.90;;;;;;5096844;28;20168;-68
2022/05/26 00:58:37;;;;;;;6.60;3.08;;;14.90;99.90;;;;;;5096596;28;20203;-69
2022/05/26 01:01:04;;;;;;;4.32;2.90;;;14.80;99.90;;;;;;5096554;28;20172;-69
2022/05/26 01:03:58;;;;;;;3.22;2.60;;;14.80;99.90;;;;;;5114807;28;20180;-69
2022/05/26 01:06:44;;;;;;;5.45;2.92;;;14.80;99.90;;;;;;5111555;28;20216;-69
2022/05/26 01:09:10;;;;;;;3.22;2.78;;;14.90;99.90;;;;;;5113656;28;20668;-69
2022/05/26 01:11:39;;;;;;;3.05;2.63;;;14.80;99.90;;;;;;5114684;28;20184;-69
2022/05/26 01:14:09;;;;;;;5.05;3.22;;;14.90;99.90;;;;;;5095994;28;20212;-68
2022/05/26 01:17:08;;;;;;;2.83;2.60;;;14.80;99.90;;;;;;5115127;28;20156;-69
2022/05/26 01:20:03;;;;;;;3.25;2.95;;;14.80;99.90;;;;;;5096180;28;20200;-69
2022/05/26 01:22:45;;;;;;;4.28;3.05;;;14.90;99.90;;;;;;5096426;28;20279;-69
2022/05/26 01:25:26;;;;;;;3.38;2.85;;;14.90;99.90;;;;;;5096274;28;20203;-69
2022/05/26 01:28:21;;;;;;;4.35;2.90;;;14.90;99.90;;;;;;5114569;28;20523;-69
2022/05/26 01:30:56;;;;;;;4.50;3.10;;;14.80;99.90;;;;;;5114624;28;20241;-69
2022/05/26 01:33:22;;;;;;;6.40;2.88;;;14.80;99.90;;;;;;5114439;28;20187;-69
2022/05/26 01:36:00;;;;;;;5.88;3.13;;;14.90;99.90;;;;;;5114225;28;20202;-68
2022/05/26 01:38:38;;;;;;;3.60;2.97;;;14.80;99.90;;;;;;5113782;28;20200;-68
2022/05/26 01:41:38;;;;;;;3.00;2.80;;;14.80;99.90;;;;;;5114144;28;20237;-68
2022/05/26 01:44:29;;;;;;;4.88;3.25;;;14.80;99.90;;;;;;5049256;28;20212;-68
2022/05/26 01:47:01;;;;;;;3.97;3.10;;;14.80;99.90;;;;;;5114284;28;20161;-68
2022/05/26 01:49:45;;;;;;;4.97;3.03;;;14.80;99.90;;;;;;5114059;28;20203;-68
2022/05/26 01:52:27;;;;;;;5.05;3.00;;;14.70;99.90;;;;;;5095969;28;20168;-68
2022/05/26 01:55:25;;;;;;;5.53;2.75;;;14.70;99.90;;;;;;5113852;28;20216;-68
2022/05/26 01:58:07;;;;;;;4.13;3.00;;;14.70;99.90;;;;;;5114174;28;20160;-69
2022/05/26 02:00:32;;;;;;;4.90;3.10;;;14.70;99.90;;;;;;5114327;28;20164;-68
2022/05/26 02:03:10;;;;;;;4.60;2.72;;;14.70;99.90;;;;;;5113904;28;20196;-68
2022/05/26 02:05:59;;;;;;;4.43;3.10;;;14.70;99.90;;;;;;5095706;28;20663;-68
2022/05/26 02:08:34;;;;;;;6.50;3.13;;;14.70;99.90;;;;;;5113769;28;20193;-69
2022/05/26 02:11:14;;;;;;;3.67;3.05;;;14.70;99.90;;;;;;5114282;28;20152;-69
2022/05/26 02:14:20;;;;;;;4.20;2.88;;;14.70;99.90;;;;;;5113979;28;20504;-69
2022/05/26 02:17:00;;;;;;;6.57;3.25;;;14.70;99.90;;;;;;5031890;28;20188;-68
2022/05/26 02:19:33;;;;;;;3.33;2.70;;;14.70;99.90;;;;;;5115972;28;20184;-69
2022/05/26 02:22:26;;;;;;;4.40;3.10;;;14.60;99.90;;;;;;5118188;28;20157;-68
2022/05/26 02:25:07;;;;;;;5.05;3.03;;;14.60;99.90;;;;;;5108008;28;20188;-69
2022/05/26 02:27:35;;;;;;;4.03;3.10;;;14.60;99.90;;;;;;5118462;28;20160;-69
2022/05/26 02:30:01;;;;;;;4.43;3.22;;;14.60;99.90;;;;;;5118132;28;20653;-68
2022/05/26 02:32:48;;;;;;;3.38;3.08;;;14.60;99.90;;;;;;5099944;28;20177;-70
2022/05/26 02:35:30;;;;;;;3.63;3.22;;;14.60;99.90;;;;;;5118042;28;20191;-68
2022/05/26 02:38:19;;;;;;;6.88;3.45;;;14.60;99.90;;;;;;5099441;28;20180;-68
2022/05/26 02:40:46;;;;;;;5.70;3.55;;;14.60;99.90;;;;;;5099780;28;20165;-68
2022/05/26 02:43:20;;;;;;;5.55;3.00;;;14.60;99.90;;;;;;5118353;28;20160;-68
2022/05/26 02:46:23;;;;;;;4.78;3.20;;;14.60;99.90;;;;;;5099574;28;20164;-68
2022/05/26 02:49:00;;;;;;;7.55;3.45;;;14.60;99.90;;;;;;5118535;28;20241;-68
2022/05/26 02:51:39;;;;;;;6.40;3.03;;;14.60;99.90;;;;;;5099647;28;20176;-68
2022/05/26 02:54:46;;;;;;;5.47;3.35;;;14.60;99.90;;;;;;5117564;28;20192;-68
2022/05/26 02:57:25;;;;;;;3.45;3.05;;;14.60;99.90;;;;;;5118277;28;20172;-68
2022/05/26 03:00:06;;;;;;;3.53;3.10;;;14.50;99.90;;;;;;5119566;28;20528;-68
2022/05/26 03:02:39;;;;;;;6.97;3.70;;;14.50;99.90;;;;;;5119130;28;20627;-68
2022/05/26 03:05:08;;;;;;;3.85;3.00;;;14.50;99.90;;;;;;5118483;28;20164;-68
2022/05/26 03:07:37;;;;;;;6.82;3.13;;;14.50;99.90;;;;;;5118289;28;20633;-68
2022/05/26 03:10:06;;;;;;;8.30;3.30;;;14.40;99.90;;;;;;5117397;28;20195;-68
2022/05/26 03:12:34;;;;;;;6.95;3.40;;;14.40;99.90;;;;;;5117306;28;20172;-68
2022/05/26 03:15:01;;;;;;;10.55;3.75;;;14.50;99.90;;;;;;5117103;28;20278;-68
2022/05/26 03:17:27;;;;;;;3.75;2.90;;;14.50;99.90;;;;;;5117254;28;20168;-69
2022/05/26 03:19:53;;;;;;;3.45;3.15;;;14.50;99.90;;;;;;5098855;28;20249;-68
2022/05/26 03:22:19;;;;;;;6.05;3.15;;;14.40;99.90;;;;;;5098964;28;20177;-68
2022/05/26 03:24:45;;;;;;;4.13;3.30;;;14.40;99.90;;;;;;5117086;28;20181;-68
2022/05/26 03:27:11;;;;;;;3.53;3.10;;;14.40;99.90;;;;;;5117262;28;20607;-68
2022/05/26 03:29:37;;;;;;;4.60;3.53;;;14.40;99.90;;;;;;5117174;28;20188;-68
2022/05/26 03:32:04;;;;;;;3.97;3.25;;;14.40;99.90;;;;;;5097958;28;20569;-68
2022/05/26 03:42:44;;;;;;;5.15;3.60;;;14.30;99.90;;;;;;5117402;28;20167;-68
2022/05/26 03:45:11;;;;;;;5.75;3.95;;;14.40;99.90;;;;;;5117002;28;20213;-68
2022/05/26 03:47:36;;;;;;;6.90;3.40;;;14.30;99.90;;;;;;5116995;28;20172;-68
2022/05/26 03:50:02;;;;;;;5.75;3.38;;;14.30;99.90;;;;;;5099085;28;20691;-68
2022/05/26 03:52:28;;;;;;;5.70;3.42;;;14.30;99.90;;;;;;5117290;28;20263;-67
2022/05/26 03:54:53;;;;;;;4.80;3.63;;;14.30;99.90;;;;;;5098777;28;20200;-67
2022/05/26 03:57:24;;;;;;;5.55;3.80;;;14.30;99.90;;;;;;5117398;28;20165;-67
2022/05/26 03:59:50;;;;;;;6.55;3.60;;;14.30;99.90;;;;;;5116492;28;20194;-67
2022/05/26 04:02:16;;;;;;;6.53;3.70;;;14.30;99.90;;;;;;5116988;28;20239;-66
2022/05/26 04:04:41;;;;;;;5.50;3.60;;;14.30;99.90;;;;;;5098006;28;20198;-67
2022/05/26 04:07:07;;;;;;;5.00;4.20;;;14.30;99.90;;;;;;5116273;28;20173;-68
2022/05/26 04:09:33;;;;;;;8.50;3.80;;;14.30;99.90;;;;;;5115962;28;20244;-68
2022/05/26 04:11:59;;;;;;;6.00;4.07;;;14.30;99.90;;;;;;5116024;28;20196;-67
2022/05/26 04:14:24;;;;;;;6.18;3.58;;;14.40;99.90;;;;;;5116205;28;20205;-67
2022/05/26 04:16:50;;;;;;;7.03;3.97;;;14.30;99.90;;;;;;5116125;28;20206;-68
2022/05/26 04:19:16;;;;;;;5.15;3.40;;;14.30;99.90;;;;;;5097727;28;20283;-68
2022/05/26 04:22:14;;;;;;;5.38;3.70;;;14.30;99.90;;;;;;5115836;28;20172;-67
2022/05/26 04:24:27;;;;;;;8.02;4.28;;;14.30;99.90;;;;;;5115331;28;20582;-68
2022/05/26 04:26:53;;;;;;;6.88;4.13;;;14.30;99.90;;;;;;5116407;28;20190;-67
2022/05/26 04:29:23;;;;;;;8.13;4.20;;;14.20;99.90;;;;;;5115736;28;20197;-67
2022/05/26 04:31:49;;;;;;;4.75;3.30;;;14.20;99.90;;;;;;5115697;28;20310;-67
2022/05/26 04:34:15;;;;;;;7.38;4.10;;;14.20;99.90;;;;;;5115595;28;20687;-67
2022/05/26 04:36:41;;;;;;;7.78;4.18;;;14.20;99.90;;;;;;5115441;28;20176;-68
2022/05/26 04:39:06;;;;;;;6.80;4.13;;;14.10;99.90;;;;;;5115025;28;20573;-68
2022/05/26 04:41:32;;;;;;;6.53;4.25;;;14.10;99.90;;;;;;5115260;28;20168;-69
2022/05/26 04:43:58;;;;;;;9.18;4.78;;;14.00;99.90;;;;;;5096056;28;20181;-68
2022/05/26 04:46:23;;;;;;;7.03;4.95;;;13.80;99.90;;;;;;5115471;28;20194;-68
2022/05/26 04:48:49;;;;;;;8.15;5.03;;;13.60;99.90;;;;;;5115161;28;20224;-69
2022/05/26 04:51:15;;;;;;;8.18;5.93;;;13.50;99.90;;;;;;5115152;28;20180;-69
2022/05/26 04:53:40;;;;;;;8.43;5.68;;;13.30;99.90;;;;;;5096786;28;20677;-69
2022/05/26 04:56:06;;;;;;;10.18;6.13;;;13.20;99.90;;;;;;5115664;28;20229;-68
2022/05/26 04:58:32;;;;;;;7.95;6.03;;;13.10;99.90;;;;;;5115898;28;20568;-69
2022/05/26 05:00:57;;;;;;;7.75;5.68;;;13.00;99.90;;;;;;5115884;28;20168;-68
2022/05/26 05:03:23;;;;;;;8.32;6.55;;;13.00;99.90;;;;;;5115819;28;20168;-69
2022/05/26 05:05:49;;;;;;;10.38;6.15;;;13.00;99.90;;;;;;5115353;28;20185;-68
2022/05/26 05:08:15;;;;;;;8.73;6.25;;;13.10;99.90;;;;;;5115161;28;20196;-69
2022/05/26 05:10:41;;;;;;;8.93;6.18;;;13.10;99.90;;;;;;5114410;28;20180;-69
2022/05/26 05:13:09;;;;;;;12.55;6.60;;;13.10;99.90;;;;;;5114783;28;20168;-69
2022/05/26 05:15:44;;;;;;;15.75;6.93;;;13.10;99.90;;;;;;5096169;28;20212;-69
2022/05/26 05:18:10;;;;;;;10.23;6.35;;;13.10;99.90;;;;;;5114794;28;20200;-69
2022/05/26 05:20:37;;;;;;;14.90;6.93;;;13.10;99.90;;;;;;5114657;28;20163;-69
2022/05/26 05:23:08;;;;;;;11.95;6.75;;;13.10;99.90;;;;;;5114864;28;20196;-69
2022/05/26 05:25:39;;;;;;;7.97;6.45;;;13.10;99.90;;;;;;5114453;28;20156;-69
2022/05/26 05:28:34;;;;;;;12.60;7.03;;;13.10;99.90;;;;;;5114579;28;20207;-69
2022/05/26 05:31:18;;;;;;;9.48;7.00;;;13.10;99.90;;;;;;5102974;28;20184;-69
2022/05/26 05:33:51;;;;;;;11.98;6.57;;;13.10;99.90;;;;;;5096079;28;20273;-70
2022/05/26 05:36:24;;;;;;;11.90;6.90;;;13.20;99.90;;;;;;5114500;28;20181;-70
2022/05/26 05:38:50;;;;;;;11.18;7.50;;;13.30;99.90;;;;;;5095666;28;20203;-70
2022/05/26 05:41:15;;;;;;;10.23;7.35;;;13.30;99.90;;;;;;5115058;28;20176;-70
2022/05/26 05:43:42;;;;;;;12.48;7.72;;;13.40;99.90;;;;;;5114220;28;20179;-70
2022/05/26 05:46:08;;;;;;;10.05;7.28;;;13.40;99.90;;;;;;5095917;28;20172;-70
2022/05/26 05:48:35;;;;;;;15.30;8.45;;;13.40;99.90;;;;;;5114688;28;20195;-70
2022/05/26 05:51:01;;;;;;;17.27;10.55;;;13.40;99.90;;;;;;5114797;28;20179;-70
2022/05/26 05:53:27;;;;;;;15.40;10.40;;;13.40;99.90;;;;;;5113578;28;20181;-70
2022/05/26 05:55:53;;;;;;;19.08;10.40;;;13.40;99.90;;;;;;5113783;28;20634;-70
2022/05/26 05:58:19;;;;;;;20.95;13.43;;;13.40;99.90;;;;;;5095663;28;20199;-69
2022/05/26 06:00:44;;;;;;;21.90;12.07;;;13.30;99.90;;;;;;5114064;28;20202;-70
2022/05/26 06:03:11;;;;;;;18.67;12.27;;;13.40;99.90;;;;;;5095759;28;20540;-70
2022/05/26 06:05:37;;;;;;;23.65;13.13;;;13.50;99.90;;;;;;5095595;28;20603;-70
2022/05/26 06:08:04;;;;;;;23.13;14.80;;;13.50;99.90;;;;;;5095473;28;20622;-70
2022/05/26 06:10:31;;;;;;;24.38;15.23;;;13.60;99.90;;;;;;5113555;28;20223;-70
2022/05/26 06:12:58;;;;;;;27.63;16.27;;;13.70;99.90;;;;;;5095528;28;20724;-69
2022/05/26 06:15:24;;;;;;;25.42;16.25;;;13.70;99.90;;;;;;5113678;28;20204;-70
2022/05/26 06:17:51;;;;;;;24.20;16.60;;;13.80;99.90;;;;;;5113619;28;20696;-70
2022/05/26 06:20:17;;;;;;;27.50;15.63;;;13.90;99.90;;;;;;5113665;28;20176;-70
2022/05/26 06:22:45;;;;;;;26.58;17.27;;;14.00;99.90;;;;;;5095412;28;20184;-70
2022/05/26 06:25:13;;;;;;;31.17;17.85;;;13.90;99.90;;;;;;5113516;28;20176;-70
2022/05/26 06:30:26;;;;;;;30.17;16.83;;;14.00;99.90;;;;;;5113680;28;20171;-70
2022/05/26 06:38:26;;;;;;;27.02;18.40;;;14.10;99.90;;;;;;5113911;28;20215;-67
2022/05/26 06:40:52;;;;;;;26.95;18.25;;;14.20;99.90;;;;;;5113518;28;20214;-69
2022/05/26 06:43:18;;;;;;;32.20;17.98;;;14.20;99.90;;;;;;5095185;28;20200;-72
2022/05/26 06:45:46;;;;;;;26.52;18.63;;;14.20;99.90;;;;;;5095263;28;20176;-70
2022/05/26 06:48:13;;;;;;;31.58;17.75;;;14.20;99.90;;;;;;5113255;28;20663;-69
2022/05/26 06:50:39;;;;;;;26.50;17.48;;;14.20;99.90;;;;;;5113713;28;20180;-69
2022/05/26 06:53:05;;;;;;;33.65;19.35;;;14.20;99.90;;;;;;5095077;28;20629;-69
2022/05/26 06:55:32;;;;;;;27.85;17.35;;;14.20;99.90;;;;;;5113080;28;20207;-69
2022/05/26 06:57:59;;;;;;;24.42;17.10;;;14.20;99.90;;;;;;5115689;28;20172;-69
2022/05/26 07:00:25;;;;;;;26.77;16.75;;;14.20;99.90;;;;;;5115740;28;20180;-69
2022/05/26 07:02:52;;;;;;;27.85;16.83;;;14.30;99.90;;;;;;5113374;28;20165;-69
2022/05/26 07:05:17;;;;;;;31.90;16.10;;;14.40;99.90;;;;;;5113581;28;20656;-69
2022/05/26 07:07:43;;;;;;;29.20;17.50;;;14.40;99.90;;;;;;5117097;28;20189;-69
2022/05/26 07:10:13;;;;;;;23.60;15.88;;;14.40;99.90;;;;;;5116915;28;20202;-70
2022/05/26 07:12:39;;;;;;;27.33;18.08;;;14.40;99.90;;;;;;5117043;28;20668;-69
2022/05/26 07:15:08;;;;;;;26.02;16.38;;;14.40;99.90;;;;;;5117052;28;20212;-71
2022/05/26 07:17:33;;;;;;;26.42;16.83;;;14.40;99.90;;;;;;5117378;28;20200;-71
2022/05/26 07:20:00;;;;;;;26.98;17.27;;;14.50;99.90;;;;;;5098589;28;20199;-70
2022/05/26 07:22:25;;;;;;;30.60;18.00;;;14.60;99.90;;;;;;5117412;28;20157;-70
2022/05/26 07:24:51;;;;;;;21.77;14.75;;;14.60;99.90;;;;;;5098232;28;20625;-70
2022/05/26 07:27:18;;;;;;;23.98;15.48;;;14.70;99.90;;;;;;5117149;28;20607;-70
2022/05/26 07:29:44;;;;;;;25.38;16.70;;;14.80;99.90;;;;;;5098274;28;20211;-71
2022/05/26 07:32:09;;;;;;;27.27;17.02;;;14.90;99.90;;;;;;5115369;28;20173;-71
2022/05/26 07:34:35;;;;;;;25.75;17.25;;;14.90;99.90;;;;;;5116595;28;20200;-70
2022/05/26 07:42:35;;;;;;;28.60;17.02;;;15.00;99.90;;;;;;5116619;28;20660;-69
2022/05/26 07:45:03;;;;;;;32.63;18.65;;;15.10;99.90;;;;;;5115421;28;20285;-69
2022/05/26 07:47:28;;;;;;;28.60;18.00;;;15.10;99.90;;;;;;5098126;28;20171;-69
2022/05/26 07:49:55;;;;;;;29.95;18.20;;;15.10;99.90;;;;;;5116276;28;20192;-69
2022/05/26 07:52:21;;;;;;;26.88;17.58;;;15.20;99.90;;;;;;5116381;28;20173;-68
2022/05/26 07:54:47;;;;;;;31.67;17.63;;;15.10;99.90;;;;;;5116069;28;20272;-68
2022/05/26 07:57:20;;;;;;;25.95;17.85;;;15.20;99.90;;;;;;5116412;28;20168;-68
2022/05/26 07:59:47;;;;;;;28.85;18.05;;;15.20;99.90;;;;;;5116364;28;20184;-69
2022/05/26 08:02:12;;;;;;;26.63;17.65;;;15.30;99.90;;;;;;5116479;28;20179;-68
2022/05/26 08:04:38;;;;;;;23.80;16.25;;;15.40;99.90;;;;;;5116197;28;20173;-68
2022/05/26 08:07:04;;;;;;;25.40;16.73;;;15.40;99.90;;;;;;5116184;28;20202;-69
2022/05/26 08:09:30;;;;;;;24.00;16.15;;;15.40;99.90;;;;;;5115814;28;20196;-71
2022/05/26 08:11:56;;;;;;;22.90;15.57;;;15.50;99.90;;;;;;5116390;28;20172;-70
2022/05/26 08:14:21;;;;;;;23.33;16.17;;;15.50;99.90;;;;;;5115917;28;20578;-70
2022/05/26 08:16:47;;;;;;;19.88;14.38;;;15.80;99.90;;;;;;5097459;28;20191;-66
2022/05/26 08:19:13;;;;;;;25.95;14.10;;;15.90;99.90;;;;;;5115828;28;20197;-68
2022/05/26 08:21:38;;;;;;;26.02;14.13;;;16.10;99.90;;;;;;5097509;28;20201;-71
2022/05/26 08:24:04;;;;;;;20.17;14.75;;;16.00;99.90;;;;;;5115785;28;20173;-68
2022/05/26 08:26:31;;;;;;;25.83;14.27;;;15.90;99.90;;;;;;5116677;28;20157;-68
2022/05/26 08:28:57;;;;;;;19.50;13.65;;;16.00;99.90;;;;;;5097445;28;20192;-68
2022/05/26 08:31:23;;;;;;;22.38;13.88;;;16.20;99.90;;;;;;5116171;28;20169;-68
2022/05/26 08:33:50;;;;;;;21.58;14.45;;;16.50;99.90;;;;;;5115783;28;20188;-66
2022/05/26 08:36:20;;;;;;;21.27;14.32;;;16.40;99.90;;;;;;5114383;28;20235;-69
2022/05/26 08:38:46;;;;;;;19.90;13.20;;;16.20;99.90;;;;;;5097570;28;20211;-68
2022/05/26 08:41:19;;;;;;;20.88;13.48;;;16.10;99.90;;;;;;5097298;28;20187;-68
2022/05/26 08:44:23;;;;;;;23.10;14.60;;;16.10;99.90;;;;;;5097493;28;20263;-70
2022/05/26 08:46:54;;;;;;;21.17;13.52;;;16.00;99.90;;;;;;5112401;28;20202;-68
2022/05/26 08:49:51;;;;;;;22.60;14.20;;;16.10;99.90;;;;;;5116135;28;20550;-68
2022/05/26 08:52:27;;;;;;;20.88;13.02;;;16.20;99.90;;;;;;5116032;28;20165;-69
2022/05/26 08:55:13;;;;;;;17.50;11.63;;;16.30;99.90;;;;;;5097388;28;20337;-67
2022/05/26 08:58:01;;;;;;;18.25;11.07;;;16.40;99.90;;;;;;5115696;28;20160;-66
2022/05/26 09:00:27;;;;;;;15.27;10.25;;;16.40;99.90;;;;;;5116087;28;20157;-67
2022/05/26 09:02:56;;;;;;;18.83;11.38;;;16.50;99.90;;;;;;5115641;28;20251;-66
2022/05/26 09:05:22;;;;;;;15.23;9.95;;;16.50;99.90;;;;;;5115342;28;20177;-66
2022/05/26 09:13:56;;;;;;;14.60;9.25;;;16.20;99.90;;;;;;5115522;28;20703;-68
2022/05/26 09:16:22;;;;;;;14.77;8.60;;;16.10;99.90;;;;;;5115193;28;20177;-68
2022/05/26 09:19:11;;;;;;;15.60;9.05;;;16.10;99.90;;;;;;5115161;28;20206;-67
2022/05/26 09:21:37;;;;;;;14.05;8.80;;;16.20;99.90;;;;;;5114924;28;20179;-67
2022/05/26 09:24:39;;;;;;;16.88;8.68;;;16.20;99.90;;;;;;5114910;28;20187;-70
2022/05/26 09:27:30;;;;;;;14.65;8.13;;;16.50;99.90;;;;;;5096751;28;20652;-67
2022/05/26 09:30:27;;;;;;;11.38;7.57;;;16.90;99.90;;;;;;5114239;28;20222;-67
2022/05/26 09:32:54;;;;;;;12.55;7.82;;;16.90;99.90;;;;;;5115067;28;20186;-68
2022/05/26 09:35:19;;;;;;;14.20;8.25;;;16.90;99.90;;;;;;5114993;28;20245;-68
2022/05/26 09:37:48;;;;;;;12.38;7.65;;;16.90;99.90;;;;;;5114502;28;20176;-68
2022/05/26 09:40:20;;;;;;;11.18;7.22;;;17.00;99.90;;;;;;5114301;28;20249;-68
2022/05/26 09:42:51;;;;;;;13.15;7.22;;;17.20;99.90;;;;;;5096254;28;20180;-68
2022/05/26 09:45:19;;;;;;;13.88;7.20;;;17.40;99.90;;;;;;5114784;28;20153;-68
2022/05/26 09:47:58;;;;;;;9.88;6.32;;;17.40;99.90;;;;;;5114620;28;20164;-68
2022/05/26 09:50:33;;;;;;;12.45;7.28;;;17.40;99.90;;;;;;5114440;28;20176;-68
2022/05/26 09:53:00;;;;;;;11.35;6.53;;;17.50;99.90;;;;;;5114417;28;20163;-68
2022/05/26 09:55:32;;;;;;;11.90;6.65;;;17.70;99.90;;;;;;5095778;28;20200;-68
2022/05/26 09:58:11;;;;;;;10.10;6.72;;;18.10;99.90;;;;;;5096010;28;20237;-68
2022/05/26 10:00:39;;;;;;;13.68;6.72;;;18.30;99.90;;;;;;5114631;28;20152;-68
2022/05/26 10:03:23;;;;;;;10.20;6.00;;;18.60;99.90;;;;;;5114323;28;20198;-68
2022/05/26 10:05:55;;;;;;;9.38;5.70;;;18.60;99.90;;;;;;5114800;28;20168;-68
2022/05/26 10:08:23;;;;;;;10.10;5.55;;;18.80;99.90;;;;;;5114937;28;20208;-69
2022/05/26 10:11:19;;;;;;;9.93;5.43;;;18.80;99.90;;;;;;5114393;28;20177;-68
2022/05/26 10:13:49;;;;;;;9.55;5.25;;;18.50;99.90;;;;;;5087877;28;20220;-68
2022/05/26 10:16:33;;;;;;;9.52;5.15;;;18.20;99.90;;;;;;5114140;28;20251;-68
2022/05/26 10:19:23;;;;;;;9.85;5.20;;;18.00;99.90;;;;;;5113964;28;20192;-69
2022/05/26 10:21:59;;;;;;;6.72;5.18;;;18.00;99.90;;;;;;5113949;28;20558;-68
2022/05/26 10:24:32;;;;;;;8.43;4.93;;;18.00;99.90;;;;;;5113843;28;20153;-67
2022/05/26 10:27:04;;;;;;;10.60;5.40;;;18.10;99.90;;;;;;5114153;28;20180;-68
2022/05/26 10:29:50;;;;;;;10.10;5.50;;;18.20;99.90;;;;;;5114215;28;20230;-68
2022/05/26 10:32:44;;;;;;;10.73;4.90;;;18.10;99.90;;;;;;5096162;28;20187;-67
2022/05/26 10:35:25;;;;;;;10.57;5.38;;;17.90;99.90;;;;;;5113683;28;20203;-67
2022/05/26 10:38:02;;;;;;;10.32;4.95;;;18.20;99.90;;;;;;5095592;28;20180;-67
2022/05/26 10:40:38;;;;;;;8.00;4.82;;;18.60;99.90;;;;;;5095609;28;20692;-68
2022/05/26 10:43:23;;;;;;;7.13;4.35;;;18.80;99.90;;;;;;5118648;28;20497;-70
2022/05/26 10:45:53;;;;;;;12.75;4.95;;;18.70;99.90;;;;;;5118548;28;20153;-70
2022/05/26 10:48:21;;;;;;;8.70;5.30;;;18.50;99.90;;;;;;5118729;28;20228;-71
2022/05/26 10:51:09;;;;;;;9.60;5.28;;;18.10;99.90;;;;;;5118674;28;20165;-70
2022/05/26 10:53:45;;;;;;;13.05;4.72;;;17.80;99.90;;;;;;5118127;28;20152;-68
2022/05/26 10:56:26;;;;;;;9.23;4.97;;;17.60;99.90;;;;;;5099575;28;20169;-68
2022/05/26 10:59:00;;;;;;;9.18;4.90;;;17.60;99.90;;;;;;5117690;28;20237;-68
2022/05/26 11:01:45;;;;;;;6.45;4.43;;;18.00;99.90;;;;;;5117833;28;20161;-68
2022/05/26 11:04:34;;;;;;;11.23;4.18;;;18.50;99.90;;;;;;5118150;28;20609;-68
2022/05/26 11:07:05;;;;;;;7.60;3.78;;;18.70;99.90;;;;;;5103832;28;20199;-68
2022/05/26 11:09:39;;;;;;;9.35;4.50;;;18.70;99.90;;;;;;5116921;28;20572;-68
2022/05/26 11:12:11;;;;;;;8.48;4.30;;;18.50;99.90;;;;;;5117330;28;20644;-67
2022/05/26 11:17:48;;;;;;;9.07;4.57;;;18.30;99.90;;;;;;5117408;28;20159;-68
2022/05/26 11:20:21;;;;;;;6.43;4.43;;;18.50;99.90;;;;;;5118109;28;20200;-67
2022/05/26 11:22:51;;;;;;;7.97;4.65;;;18.90;99.90;;;;;;5098659;28;20625;-68
2022/05/26 11:25:39;;;;;;;6.15;4.35;;;19.20;99.90;;;;;;5116742;28;20157;-68
2022/05/26 11:28:20;;;;;;;9.43;4.43;;;19.70;99.90;;;;;;5116777;28;20167;-68
2022/05/26 11:36:52;;;;;;;6.32;3.70;;;19.10;99.90;;;;;;5117297;28;20666;-68
2022/05/26 11:39:25;;;;;;;7.22;4.20;;;19.40;99.90;;;;;;5116497;28;20664;-68
2022/05/26 11:42:13;;;;;;;7.75;3.78;;;19.40;99.90;;;;;;5116447;28;20533;-69
2022/05/26 11:45:03;;;;;;;9.20;4.20;;;19.10;99.90;;;;;;5098308;28;20184;-68
2022/05/26 11:47:29;;;;;;;7.78;4.10;;;18.80;99.90;;;;;;5116556;28;20236;-68
2022/05/26 11:49:55;;;;;;;9.00;4.10;;;18.70;99.90;;;;;;5098024;28;20203;-68
2022/05/26 11:52:46;;;;;;;9.90;4.45;;;18.50;99.90;;;;;;5116132;28;20173;-67
2022/05/26 11:55:32;;;;;;;9.07;4.03;;;18.20;99.90;;;;;;5097773;28;20204;-67
2022/05/26 11:58:32;;;;;;;7.25;3.80;;;18.10;99.90;;;;;;5116561;28;20161;-68
2022/05/26 12:01:21;;;;;;;8.18;3.38;;;17.90;99.90;;;;;;5098212;28;20631;-68
2022/05/26 12:04:25;;;;;;;6.53;4.05;;;17.90;99.90;;;;;;5116208;28;20172;-68
2022/05/26 12:06:56;;;;;;;9.63;4.53;;;18.00;99.90;;;;;;5077136;28;20188;-68
2022/05/26 12:09:31;;;;;;;7.88;3.47;;;18.60;99.90;;;;;;5116049;28;20252;-68
2022/05/26 12:12:01;;;;;;;5.30;3.25;;;19.10;99.90;;;;;;5115998;28;20251;-67
2022/05/26 12:14:47;;;;;;;7.57;3.70;;;19.20;99.90;;;;;;5097518;28;20252;-68
2022/05/26 12:17:31;;;;;;;6.53;3.95;;;19.20;99.90;;;;;;5064524;28;20188;-68
2022/05/26 12:20:05;;;;;;;6.90;3.75;;;19.20;99.90;;;;;;5097574;28;20287;-67
2022/05/26 12:22:41;;;;;;;7.70;3.70;;;18.80;99.90;;;;;;5116065;28;20148;-67
2022/05/26 12:25:25;;;;;;;4.90;3.65;;;18.70;99.90;;;;;;5116090;28;20168;-68
2022/05/26 12:28:31;;;;;;;5.03;3.72;;;18.60;99.90;;;;;;5116303;28;20200;-68
2022/05/26 12:30:56;;;;;;;9.05;4.40;;;18.60;99.90;;;;;;5116023;28;20184;-68
2022/05/26 12:33:40;;;;;;;6.45;4.30;;;19.00;99.90;;;;;;5097274;28;20679;-68
2022/05/26 12:36:28;;;;;;;8.05;3.47;;;19.40;99.90;;;;;;5097283;28;20185;-67
2022/05/26 12:39:17;;;;;;;6.25;4.00;;;19.40;99.90;;;;;;5115375;28;20745;-67
2022/05/26 12:41:52;;;;;;;6.85;4.20;;;19.40;99.90;;;;;;5115158;28;20183;-67
2022/05/26 12:44:33;;;;;;;6.30;3.95;;;19.40;99.90;;;;;;5115496;28;20247;-68
2022/05/26 12:47:07;;;;;;;5.22;3.60;;;19.50;99.90;;;;;;5115464;28;20153;-68
2022/05/26 12:49:54;;;;;;;5.20;3.55;;;19.50;99.90;;;;;;5115197;28;20192;-67
2022/05/26 12:52:31;;;;;;;9.02;4.38;;;19.60;99.90;;;;;;5115915;28;20230;-69
2022/05/26 12:55:27;;;;;;;8.40;4.68;;;19.90;99.90;;;;;;5096760;28;20199;-68
2022/05/26 12:58:20;;;;;;;12.68;7.80;;;20.00;99.90;;;;;;5115266;28;20202;-68
2022/05/26 13:00:59;;;;;;;10.65;5.13;;;19.90;99.90;;;;;;5115114;28;20689;-68
2022/05/26 13:03:28;;;;;;;7.28;3.95;;;19.70;99.90;;;;;;5114607;28;20498;-68
2022/05/26 13:06:02;;;;;;;7.78;4.70;;;19.60;99.90;;;;;;5115035;28;20188;-68
2022/05/26 13:08:34;;;;;;;11.52;5.53;;;19.50;99.90;;;;;;5115070;28;20196;-68
2022/05/26 13:11:00;;;;;;;7.47;3.67;;;19.50;99.90;;;;;;5114885;28;20156;-68
2022/05/26 13:13:48;;;;;;;8.07;4.22;;;19.80;99.90;;;;;;5096379;28;20180;-68
2022/05/26 13:16:30;;;;;;;7.40;3.83;;;20.20;99.90;;;;;;5114734;28;20572;-68
2022/05/26 13:19:14;;;;;;;6.82;4.05;;;20.50;99.90;;;;;;5114742;28;20726;-69
2022/05/26 13:21:42;;;;;;;10.35;3.85;;;20.80;99.90;;;;;;5114969;28;20148;-68
2022/05/26 13:24:18;;;;;;;6.88;3.40;;;21.30;99.90;;;;;;5114949;28;20533;-68
2022/05/26 13:26:45;;;;;;;7.80;3.30;;;21.50;99.90;;;;;;5114400;28;20239;-68
2022/05/26 13:29:14;;;;;;;7.15;4.20;;;21.20;99.90;;;;;;5114425;28;20192;-69
2022/05/26 13:34:33;;;;;;;7.43;3.42;;;20.20;99.90;;;;;;5114457;28;20246;-69
2022/05/26 13:37:14;;;;;;;7.55;4.10;;;20.00;99.90;;;;;;5114478;28;20165;-68
2022/05/26 13:39:40;;;;;;;6.75;3.45;;;20.00;99.90;;;;;;5114295;28;20713;-68
2022/05/26 13:42:06;;;;;;;10.30;3.55;;;20.40;99.90;;;;;;5114064;28;20176;-68
2022/05/26 13:44:41;;;;;;;6.65;3.55;;;20.30;99.90;;;;;;5114285;28;20225;-68
2022/05/26 13:47:12;;;;;;;6.88;3.60;;;20.20;99.90;;;;;;5096039;28;20550;-68
2022/05/26 13:49:43;;;;;;;7.45;3.55;;;20.60;99.90;;;;;;5114461;28;20188;-68
2022/05/26 13:52:27;;;;;;;9.55;3.40;;;20.60;99.90;;;;;;5114540;28;20157;-68